createdAt,value
2023-02-02T00:04:55.833Z,80.57
2023-02-02T00:09:58.047Z,82.61
2023-02-02T00:15:00.153Z,82.49
2023-02-02T00:20:02.264Z,85.12
2023-02-02T00:25:05.944Z,85.48
2023-02-02T00:30:09.022Z,86.24
2023-02-02T00:35:11.167Z,85.08
2023-02-02T00:40:13.505Z,84.21
2023-02-02T00:45:18.671Z,84.48
2023-02-02T00:50:21.357Z,83.42
2023-02-02T00:55:24.159Z,81.09
2023-02-02T01:00:27.564Z,80.93
2023-02-02T01:05:30.634Z,77.29
2023-02-02T01:10:34.132Z,74.43
2023-02-02T01:15:37.278Z,74.64
2023-02-02T01:20:39.350Z,75.19
2023-02-02T01:25:41.453Z,75.28
2023-02-02T01:30:43.537Z,76.86
2023-02-02T01:35:50.933Z,77.65
2023-02-02T01:40:56.028Z,77.51
2023-02-02T01:45:59.249Z,77.50
2023-02-02T01:51:06.935Z,77.46
2023-02-02T01:56:12.107Z,76.09
2023-02-02T02:01:15.071Z,75.02
2023-02-02T02:06:19.044Z,74.40
2023-02-02T02:11:22.634Z,74.45
2023-02-02T02:16:37.142Z,74.25
2023-02-02T02:22:24.781Z,74.86
2023-02-02T02:27:45.204Z,75.63
2023-02-02T02:32:52.836Z,75.89
2023-02-02T02:38:06.124Z,74.72
2023-02-02T02:43:18.906Z,75.01
2023-02-02T02:48:21.424Z,75.90
2023-02-02T02:53:24.217Z,76.65
2023-02-02T02:58:53.640Z,76.23
2023-02-02T03:04:04.649Z,76.40
2023-02-02T03:09:11.841Z,76.10
2023-02-02T03:14:13.944Z,75.83
2023-02-02T03:19:16.086Z,75.25
2023-02-02T03:24:18.177Z,75.71
2023-02-02T03:29:20.381Z,76.31
2023-02-02T03:34:22.566Z,76.67
2023-02-02T03:39:24.626Z,76.15
2023-02-02T03:44:26.881Z,76.94
2023-02-02T03:49:29.005Z,76.74
2023-02-02T03:54:31.554Z,77.18
2023-02-02T03:59:33.700Z,77.21
2023-02-02T04:04:35.870Z,77.01
2023-02-02T04:09:37.945Z,77.50
2023-02-02T04:14:40.062Z,77.97
2023-02-02T04:19:42.327Z,78.72
2023-02-02T04:24:44.424Z,77.96
2023-02-02T04:29:46.663Z,78.12
2023-02-02T04:34:48.841Z,78.11
2023-02-02T04:39:50.974Z,79.37
2023-02-02T04:44:53.111Z,78.89
2023-02-02T04:49:55.209Z,78.51
2023-02-02T04:54:57.336Z,79.35
2023-02-02T04:59:59.424Z,79.61
2023-02-02T05:05:01.546Z,78.80
2023-02-02T05:10:07.928Z,79.14
2023-02-02T05:15:10.677Z,79.87
2023-02-02T05:20:12.986Z,81.56
2023-02-02T05:25:15.181Z,83.42
2023-02-02T05:30:17.717Z,83.42
2023-02-02T05:35:19.858Z,82.11
2023-02-02T05:40:21.986Z,82.22
2023-02-02T05:45:24.527Z,82.37
2023-02-02T05:50:26.799Z,81.57
2023-02-02T05:55:28.877Z,82.43
2023-02-02T06:00:30.997Z,83.53
2023-02-02T06:05:33.147Z,83.23
2023-02-02T06:10:36.252Z,79.15
2023-02-02T06:15:38.569Z,80.14
2023-02-02T06:20:40.777Z,79.98
2023-02-02T06:25:42.889Z,81.76
2023-02-02T06:30:45.598Z,81.27
2023-02-02T06:35:47.841Z,81.71
2023-02-02T06:40:50.066Z,79.90
2023-02-02T06:45:52.358Z,79.44
2023-02-02T06:50:57.448Z,78.15
2023-02-02T06:56:04.399Z,78.04
2023-02-02T07:01:09.578Z,76.83
2023-02-02T07:06:20.651Z,76.22
2023-02-02T07:11:23.288Z,76.66
2023-02-02T07:16:25.723Z,75.88
2023-02-02T07:21:36.326Z,76.15
2023-02-02T07:26:39.208Z,77.17
2023-02-02T07:31:42.027Z,77.68
2023-02-02T07:36:44.348Z,78.24
2023-02-02T07:41:46.443Z,76.01
2023-02-02T07:46:48.716Z,72.82
2023-02-02T07:51:50.901Z,71.24
2023-02-02T07:56:53.314Z,70.85
2023-02-02T08:01:55.600Z,67.64
2023-02-02T08:06:57.797Z,67.87
2023-02-02T08:12:02.436Z,68.16
2023-02-02T08:17:04.646Z,68.36
2023-02-02T08:22:06.944Z,67.12
2023-02-02T08:27:10.030Z,66.07
2023-02-02T08:32:12.500Z,64.19
2023-02-02T08:37:14.798Z,62.24
2023-02-02T08:42:16.990Z,62.49
2023-02-02T08:47:19.170Z,61.16
2023-02-02T08:52:21.471Z,61.61
2023-02-02T08:57:23.551Z,61.19
2023-02-02T09:02:25.881Z,59.80
2023-02-02T09:07:27.982Z,57.80
2023-02-02T09:12:31.309Z,57.51
2023-02-02T09:17:33.411Z,57.07
2023-02-02T09:22:35.521Z,56.40
2023-02-02T09:27:41.060Z,55.79
2023-02-02T09:32:43.371Z,55.54
2023-02-02T09:37:45.597Z,55.10
2023-02-02T09:43:28.683Z,54.65
2023-02-02T09:48:58.410Z,54.09
2023-02-02T09:54:10.180Z,53.02
2023-02-02T09:59:22.839Z,51.19
2023-02-02T10:04:39.820Z,47.21
2023-02-02T10:10:04.159Z,49.92
2023-02-02T10:15:23.055Z,51.72
2023-02-02T10:20:46.509Z,52.64
2023-02-02T10:26:20.138Z,53.88
2023-02-02T10:31:43.060Z,53.97
2023-02-02T10:37:00.443Z,45.52
2023-02-02T10:42:23.779Z,42.53
2023-02-02T10:47:35.692Z,39.79
2023-02-02T10:52:39.933Z,33.31
2023-02-02T10:58:23.007Z,34.14
2023-02-02T11:03:28.592Z,32.84
2023-02-02T11:08:38.964Z,32.84
2023-02-02T11:13:47.945Z,31.17
2023-02-02T11:18:50.504Z,30.18
2023-02-02T11:24:30.373Z,28.57
2023-02-02T11:29:38.828Z,30.11
2023-02-02T11:34:41.020Z,27.00
2023-02-02T11:39:44.549Z,29.90
2023-02-02T11:44:53.342Z,39.42
2023-02-02T11:49:58.712Z,45.86
2023-02-02T11:55:14.709Z,49.49
2023-02-02T12:00:19.525Z,51.64
2023-02-02T12:05:21.598Z,52.35
2023-02-02T12:10:42.108Z,53.59
2023-02-02T12:15:51.347Z,53.85
2023-02-02T12:21:26.918Z,54.57
2023-02-02T12:26:32.005Z,54.60
2023-02-02T12:31:37.081Z,54.77
2023-02-02T12:37:04.609Z,54.85
2023-02-02T12:42:35.106Z,55.19
2023-02-02T12:47:55.775Z,55.68
2023-02-02T12:53:22.722Z,56.18
2023-02-02T12:58:37.287Z,56.60
2023-02-02T13:03:58.114Z,57.08
2023-02-02T13:09:19.704Z,57.13
2023-02-02T13:14:34.092Z,56.71
2023-02-02T13:19:41.455Z,56.95
2023-02-02T13:24:48.041Z,56.60
2023-02-02T13:29:56.867Z,57.41
2023-02-02T13:35:21.653Z,57.33
2023-02-02T13:40:32.915Z,57.23
2023-02-02T13:45:53.912Z,56.76
2023-02-02T13:51:26.712Z,56.82
2023-02-02T13:56:31.857Z,56.40
2023-02-02T14:01:35.967Z,49.99
2023-02-02T14:07:00.230Z,52.37
2023-02-02T14:12:07.369Z,45.02
2023-02-02T14:17:20.369Z,46.62
2023-02-02T14:22:44.695Z,54.26
2023-02-02T14:27:59.936Z,55.91
2023-02-02T14:33:20.618Z,57.19
2023-02-02T14:38:44.656Z,57.65
2023-02-02T14:43:53.995Z,57.41
2023-02-02T14:48:57.912Z,57.63
2023-02-02T14:54:03.669Z,55.15
2023-02-02T14:59:07.694Z,50.42
2023-02-02T15:04:22.641Z,48.45
2023-02-02T15:09:27.992Z,53.83
2023-02-02T15:14:58.373Z,56.07
2023-02-02T15:20:09.375Z,57.98
2023-02-02T15:25:26.701Z,58.67
2023-02-02T15:30:34.444Z,59.43
2023-02-02T15:35:38.297Z,59.55
2023-02-02T15:40:41.072Z,59.65
2023-02-02T15:45:50.044Z,60.20
2023-02-02T15:50:56.659Z,60.54
2023-02-02T15:55:59.189Z,61.01
2023-02-02T16:01:03.197Z,61.54
2023-02-02T16:06:07.829Z,61.91
2023-02-02T16:11:13.332Z,63.88
2023-02-02T16:16:25.298Z,64.10
2023-02-02T16:21:29.296Z,64.04
2023-02-02T16:26:33.403Z,64.25
2023-02-02T16:31:36.087Z,64.08
2023-02-02T16:36:38.302Z,63.93
2023-02-02T16:41:40.545Z,65.04
2023-02-02T16:46:49.130Z,66.32
2023-02-02T16:52:09.934Z,66.40
2023-02-02T16:57:21.821Z,66.36
2023-02-02T17:02:26.700Z,65.72
2023-02-02T17:07:31.253Z,65.78
2023-02-02T17:12:34.784Z,66.82
2023-02-02T17:17:38.646Z,67.65
2023-02-02T17:22:44.444Z,67.60
2023-02-02T17:27:47.149Z,67.75
2023-02-02T17:32:52.704Z,67.96
2023-02-02T17:37:55.364Z,68.26
2023-02-02T17:42:57.636Z,68.89
2023-02-02T17:48:02.879Z,68.62
2023-02-02T17:53:05.496Z,68.56
2023-02-02T17:58:08.887Z,68.79
2023-02-02T18:03:34.239Z,68.98
2023-02-02T18:08:36.605Z,69.46
2023-02-02T18:13:39.158Z,70.41
2023-02-02T18:18:41.586Z,70.64
2023-02-02T18:23:48.013Z,70.64
2023-02-02T18:28:50.880Z,70.79
2023-02-02T18:33:53.863Z,72.00
2023-02-02T18:38:56.427Z,72.60
2023-02-02T18:43:58.543Z,72.90
2023-02-02T18:49:00.954Z,72.40
2023-02-02T18:54:03.316Z,72.83
2023-02-02T18:59:06.981Z,72.65
2023-02-02T19:04:13.351Z,72.78
2023-02-02T19:09:17.311Z,73.21
2023-02-02T19:14:19.610Z,72.67
2023-02-02T19:19:33.284Z,72.57
2023-02-02T19:24:39.967Z,72.83
2023-02-02T19:29:42.156Z,73.37
2023-02-02T19:34:46.934Z,72.36
2023-02-02T19:39:49.549Z,72.39
2023-02-02T19:44:53.283Z,73.37
2023-02-02T19:49:57.033Z,74.45
2023-02-02T19:55:00.561Z,74.49
2023-02-02T20:00:20.579Z,74.09
2023-02-02T20:05:29.612Z,74.97
2023-02-02T20:10:43.586Z,76.03
2023-02-02T20:15:46.344Z,75.79
2023-02-02T20:20:52.584Z,76.53
2023-02-02T20:25:55.076Z,77.53
2023-02-02T20:30:57.221Z,78.68
2023-02-02T20:36:02.308Z,77.79
2023-02-02T20:41:05.881Z,78.36
2023-02-02T20:46:08.048Z,77.68
2023-02-02T20:51:10.635Z,77.86
2023-02-02T20:56:12.889Z,78.47
2023-02-02T21:01:15.184Z,79.01
2023-02-02T21:06:17.405Z,79.93
2023-02-02T21:11:19.963Z,79.92
2023-02-02T21:16:22.493Z,80.62
2023-02-02T21:21:24.700Z,81.34
2023-02-02T21:26:31.930Z,81.97
2023-02-02T21:31:39.692Z,82.00
2023-02-02T21:36:47.019Z,81.83
2023-02-02T21:41:55.082Z,82.05
2023-02-02T21:46:57.406Z,82.07
2023-02-02T21:52:02.593Z,81.30
2023-02-02T21:57:17.196Z,81.14
2023-02-02T22:02:44.966Z,81.21
2023-02-02T22:07:49.272Z,82.32
2023-02-02T22:12:51.371Z,81.51
2023-02-02T22:17:53.526Z,81.35
2023-02-02T22:22:55.616Z,80.19
2023-02-02T22:28:01.451Z,81.20
2023-02-02T22:33:06.082Z,80.78
2023-02-02T22:38:09.365Z,81.36
2023-02-02T22:43:13.418Z,80.86
2023-02-02T22:48:16.637Z,81.10
2023-02-02T22:53:18.854Z,81.89
2023-02-02T22:58:20.922Z,81.48
2023-02-02T23:03:22.998Z,81.87
2023-02-02T23:08:25.269Z,82.84
2023-02-02T23:13:27.328Z,81.95
2023-02-02T23:18:29.424Z,83.11
2023-02-02T23:23:31.508Z,83.56
2023-02-02T23:28:33.778Z,82.23
2023-02-02T23:33:35.910Z,81.95
2023-02-02T23:38:38.005Z,82.12
2023-02-02T23:43:42.577Z,82.47
2023-02-02T23:48:45.402Z,81.09
2023-02-02T23:53:47.510Z,81.85
2023-02-02T23:58:49.670Z,80.64
